createdAt,value
2023-05-21T00:00:35.240Z,41.93
2023-05-21T00:01:35.270Z,42.60
2023-05-21T00:02:35.381Z,43.92
2023-05-21T00:03:35.427Z,46.56
2023-05-21T00:04:35.373Z,50.80
2023-05-21T00:05:35.606Z,49.53
2023-05-21T00:06:35.478Z,50.13
2023-05-21T00:07:35.438Z,45.94
2023-05-21T00:08:35.482Z,44.49
2023-05-21T00:09:35.484Z,49.34
2023-05-21T00:10:35.555Z,48.87
2023-05-21T00:11:35.557Z,48.54
2023-05-21T00:12:35.577Z,44.56
2023-05-21T00:13:35.629Z,48.18
2023-05-21T00:14:35.661Z,47.94
2023-05-21T00:15:35.882Z,47.04
2023-05-21T00:16:35.773Z,52.47
2023-05-21T00:17:35.810Z,51.13
2023-05-21T00:18:35.802Z,51.02
2023-05-21T00:19:35.835Z,51.90
2023-05-21T00:20:35.877Z,50.68
2023-05-21T00:21:35.875Z,49.27
2023-05-21T00:22:35.910Z,43.48
2023-05-21T00:23:35.945Z,42.17
2023-05-21T00:24:35.984Z,45.80
2023-05-21T00:25:36.194Z,43.54
2023-05-21T00:26:36.019Z,51.18
2023-05-21T00:27:36.054Z,53.45
2023-05-21T00:28:36.097Z,50.78
2023-05-21T00:29:36.122Z,45.48
2023-05-21T00:30:36.170Z,49.87
2023-05-21T00:31:36.248Z,55.08
2023-05-21T00:32:36.245Z,47.92
2023-05-21T00:33:36.243Z,57.84
2023-05-21T00:34:36.266Z,52.47
2023-05-21T00:35:36.522Z,52.60
2023-05-21T00:36:36.335Z,53.57
2023-05-21T00:37:36.375Z,57.70
2023-05-21T00:38:36.403Z,52.23
2023-05-21T00:39:36.418Z,53.64
2023-05-21T00:40:36.477Z,55.04
2023-05-21T00:41:36.481Z,54.78
2023-05-21T00:42:36.571Z,55.91
2023-05-21T00:43:36.520Z,56.42
2023-05-21T00:44:36.553Z,59.49
2023-05-21T00:45:36.947Z,59.61
2023-05-21T00:46:36.622Z,51.95
2023-05-21T00:47:36.669Z,56.81
2023-05-21T00:48:36.662Z,52.72
2023-05-21T00:49:36.696Z,52.69
2023-05-21T00:50:36.725Z,57.63
2023-05-21T00:51:36.777Z,59.44
2023-05-21T00:52:36.784Z,53.78
2023-05-21T00:53:36.840Z,56.74
2023-05-21T00:54:36.866Z,54.76
2023-05-21T00:55:37.141Z,55.25
2023-05-21T00:56:36.952Z,56.11
2023-05-21T00:57:36.976Z,59.13
2023-05-21T00:58:37.004Z,59.31
2023-05-21T00:59:37.038Z,53.80
2023-05-21T01:00:37.091Z,50.80
2023-05-21T01:01:37.297Z,51.17
2023-05-21T01:02:37.318Z,51.98
2023-05-21T01:03:37.144Z,53.46
2023-05-21T01:04:37.097Z,55.96
2023-05-21T01:05:37.359Z,59.06
2023-05-21T01:06:37.104Z,60.60
2023-05-21T01:07:37.106Z,62.90
2023-05-21T01:08:37.109Z,68.92
2023-05-21T01:09:37.149Z,61.04
2023-05-21T01:10:37.140Z,57.75
2023-05-21T01:11:37.114Z,61.45
2023-05-21T01:12:37.143Z,61.79
2023-05-21T01:13:37.128Z,61.54
2023-05-21T01:14:37.130Z,62.69
2023-05-21T01:15:37.311Z,66.24
2023-05-21T01:16:37.178Z,63.67
2023-05-21T01:17:37.205Z,69.15
2023-05-21T01:18:37.173Z,68.46
2023-05-21T01:19:37.180Z,65.69
2023-05-21T01:20:37.122Z,66.72
2023-05-21T01:21:37.103Z,76.74
2023-05-21T01:22:37.128Z,69.80
2023-05-21T01:23:37.113Z,60.47
2023-05-21T01:24:37.104Z,62.62
2023-05-21T01:25:37.361Z,64.63
2023-05-21T01:26:37.112Z,67.57
2023-05-21T01:27:37.139Z,68.44
2023-05-21T01:28:37.118Z,70.03
2023-05-21T01:29:37.125Z,73.10
2023-05-21T01:30:37.142Z,64.15
2023-05-21T01:31:37.174Z,65.23
2023-05-21T01:32:37.341Z,71.46
2023-05-21T01:33:37.349Z,67.68
2023-05-21T01:34:37.278Z,67.97
2023-05-21T01:35:37.632Z,66.75
2023-05-21T01:36:37.344Z,69.67
2023-05-21T01:37:37.384Z,73.16
2023-05-21T01:38:37.422Z,64.40
2023-05-21T01:39:37.452Z,67.73
2023-05-21T01:40:37.499Z,67.63
2023-05-21T01:41:37.504Z,68.07
2023-05-21T01:42:37.486Z,68.55
2023-05-21T01:43:37.504Z,70.12
2023-05-21T01:44:37.493Z,73.26
2023-05-21T01:45:37.590Z,69.61
2023-05-21T01:46:37.536Z,76.85
2023-05-21T01:47:37.563Z,73.66
2023-05-21T01:48:37.510Z,79.14
2023-05-21T01:49:37.509Z,75.89
2023-05-21T01:50:37.525Z,70.81
2023-05-21T01:51:37.505Z,70.47
2023-05-21T01:52:37.503Z,75.16
2023-05-21T01:53:37.529Z,73.69
2023-05-21T01:54:37.522Z,73.63
2023-05-21T01:55:37.850Z,74.70
2023-05-21T01:56:37.527Z,73.21
2023-05-21T01:57:37.520Z,69.66
2023-05-21T01:58:37.530Z,70.64
2023-05-21T01:59:37.534Z,78.27
2023-05-21T02:00:37.568Z,71.51
2023-05-21T02:01:37.613Z,69.07
2023-05-21T02:02:37.660Z,71.10
2023-05-21T02:03:37.760Z,77.69
2023-05-21T02:04:37.708Z,67.58
2023-05-21T02:05:37.915Z,71.86
2023-05-21T02:06:37.764Z,73.53
2023-05-21T02:07:37.786Z,66.50
2023-05-21T02:08:37.821Z,68.00
2023-05-21T02:09:37.862Z,75.95
2023-05-21T02:10:37.897Z,74.35
2023-05-21T02:11:37.942Z,70.75
2023-05-21T02:12:37.949Z,81.53
2023-05-21T02:13:37.982Z,77.83
2023-05-21T02:14:38.072Z,73.07
2023-05-21T02:15:38.234Z,70.11
2023-05-21T02:16:38.368Z,76.81
2023-05-21T02:17:38.204Z,74.06
2023-05-21T02:18:38.234Z,75.23
2023-05-21T02:19:38.266Z,79.92
2023-05-21T02:20:38.309Z,83.27
2023-05-21T02:21:38.343Z,75.57
2023-05-21T02:22:38.374Z,71.47
2023-05-21T02:23:38.443Z,69.35
2023-05-21T02:24:38.500Z,70.54
2023-05-21T02:25:38.714Z,79.19
2023-05-21T02:26:38.633Z,72.38
2023-05-21T02:27:38.727Z,70.97
2023-05-21T02:28:38.695Z,69.70
2023-05-21T02:29:38.741Z,70.07
2023-05-21T02:30:38.772Z,70.84
2023-05-21T02:31:38.810Z,79.24
2023-05-21T02:32:38.877Z,69.18
2023-05-21T02:33:38.932Z,73.72
2023-05-21T02:34:38.923Z,73.27
2023-05-21T02:35:38.980Z,69.26
2023-05-21T02:36:39.011Z,68.53
2023-05-21T02:37:39.035Z,70.82
2023-05-21T02:38:39.081Z,71.49
2023-05-21T02:39:39.115Z,66.79
2023-05-21T02:40:39.155Z,70.59
2023-05-21T02:41:39.188Z,70.57
2023-05-21T02:42:39.248Z,72.36
2023-05-21T02:43:39.272Z,68.45
2023-05-21T02:44:39.318Z,63.68
2023-05-21T02:45:39.512Z,62.54
2023-05-21T02:46:39.382Z,70.64
2023-05-21T02:47:39.487Z,68.70
2023-05-21T02:48:39.460Z,68.37
2023-05-21T02:49:39.500Z,77.60
2023-05-21T02:50:39.493Z,74.95
2023-05-21T02:51:39.503Z,66.21
2023-05-21T02:52:39.472Z,75.28
2023-05-21T02:53:39.477Z,70.70
2023-05-21T02:54:39.470Z,67.12
2023-05-21T02:55:39.520Z,76.72
2023-05-21T02:56:39.447Z,75.41
2023-05-21T02:57:39.457Z,70.44
2023-05-21T02:58:39.447Z,72.81
2023-05-21T02:59:39.423Z,79.31
2023-05-21T03:00:39.414Z,74.21
2023-05-21T03:01:39.489Z,71.23
2023-05-21T03:02:39.518Z,72.84
2023-05-21T03:03:39.452Z,66.15
2023-05-21T03:04:39.448Z,77.02
2023-05-21T03:05:39.511Z,69.81
2023-05-21T03:06:39.538Z,74.50
2023-05-21T03:07:39.586Z,69.40
2023-05-21T03:08:39.622Z,66.65
2023-05-21T03:09:39.652Z,66.86
2023-05-21T03:10:39.718Z,68.01
2023-05-21T03:11:39.727Z,60.88
2023-05-21T03:12:39.756Z,70.89
2023-05-21T03:13:39.821Z,68.29
2023-05-21T03:14:39.842Z,63.59
2023-05-21T03:15:39.928Z,66.58
2023-05-21T03:16:39.920Z,67.39
2023-05-21T03:17:39.984Z,64.26
2023-05-21T03:18:40.015Z,65.71
2023-05-21T03:19:40.050Z,66.38
2023-05-21T03:20:40.095Z,63.51
2023-05-21T03:21:40.125Z,71.87
2023-05-21T03:22:40.149Z,66.08
2023-05-21T03:23:40.194Z,67.93
2023-05-21T03:24:40.238Z,67.54
2023-05-21T03:25:40.268Z,62.72
2023-05-21T03:26:40.339Z,67.08
2023-05-21T03:27:40.348Z,72.43
2023-05-21T03:28:40.382Z,72.57
2023-05-21T03:29:40.436Z,68.77
2023-05-21T03:30:40.474Z,62.96
2023-05-21T03:31:40.570Z,66.90
2023-05-21T03:32:40.604Z,59.86
2023-05-21T03:33:40.609Z,66.23
2023-05-21T03:34:40.641Z,66.09
2023-05-21T03:35:40.698Z,67.77
2023-05-21T03:36:40.753Z,70.11
2023-05-21T03:37:40.793Z,60.95
2023-05-21T03:38:40.819Z,68.71
2023-05-21T03:39:40.880Z,65.22
2023-05-21T03:40:40.955Z,65.23
2023-05-21T03:41:40.931Z,71.36
2023-05-21T03:42:40.971Z,71.35
2023-05-21T03:43:41.012Z,73.12
2023-05-21T03:44:41.056Z,72.59
2023-05-21T03:45:44.216Z,68.50
2023-05-21T03:46:41.117Z,72.58
2023-05-21T03:47:41.115Z,76.58
2023-05-21T03:48:41.106Z,77.71
2023-05-21T03:49:41.104Z,76.74
2023-05-21T03:50:41.102Z,77.58
2023-05-21T03:51:41.100Z,69.71
2023-05-21T03:52:41.110Z,77.95
2023-05-21T03:53:41.128Z,67.06
2023-05-21T03:54:41.125Z,76.28
2023-05-21T03:55:41.123Z,75.61
2023-05-21T03:56:41.133Z,75.74
2023-05-21T03:57:41.129Z,73.91
2023-05-21T03:58:41.130Z,74.03
2023-05-21T03:59:41.149Z,80.26
2023-05-21T04:00:41.144Z,71.92
2023-05-21T04:01:41.140Z,75.17
2023-05-21T04:02:41.231Z,71.18
2023-05-21T04:03:41.307Z,76.13
2023-05-21T04:04:41.183Z,77.93
2023-05-21T04:05:41.135Z,70.86
2023-05-21T04:06:41.137Z,78.76
2023-05-21T04:07:41.151Z,79.98
2023-05-21T04:08:41.155Z,83.07
2023-05-21T04:09:41.154Z,78.69
2023-05-21T04:10:41.159Z,75.33
2023-05-21T04:11:41.160Z,76.99
2023-05-21T04:12:41.172Z,77.42
2023-05-21T04:13:41.176Z,77.49
2023-05-21T04:14:41.176Z,75.25
2023-05-21T04:15:41.193Z,76.02
2023-05-21T04:16:41.181Z,85.15
2023-05-21T04:17:41.218Z,76.21
2023-05-21T04:18:42.436Z,73.62
2023-05-21T04:19:41.176Z,80.15
2023-05-21T04:20:41.177Z,73.46
2023-05-21T04:21:41.174Z,76.28
2023-05-21T04:22:41.191Z,81.65
2023-05-21T04:23:41.231Z,78.02
2023-05-21T04:24:41.264Z,80.73
2023-05-21T04:25:41.273Z,74.45
2023-05-21T04:26:41.302Z,72.24
2023-05-21T04:27:41.271Z,77.05
2023-05-21T04:28:41.269Z,67.83
2023-05-21T04:29:41.268Z,69.04
2023-05-21T04:30:41.263Z,84.60
2023-05-21T04:31:41.344Z,68.19
2023-05-21T04:32:41.341Z,76.67
2023-05-21T04:33:41.254Z,68.34
2023-05-21T04:34:41.243Z,76.26
2023-05-21T04:35:41.242Z,73.38
2023-05-21T04:36:41.238Z,72.82
2023-05-21T04:37:41.238Z,73.06
2023-05-21T04:38:41.242Z,66.88
2023-05-21T04:39:41.268Z,77.58
2023-05-21T04:40:41.279Z,79.97
2023-05-21T04:41:41.295Z,77.12
2023-05-21T04:42:41.330Z,69.21
2023-05-21T04:43:41.384Z,74.23
2023-05-21T04:44:41.469Z,75.39
2023-05-21T04:45:41.474Z,74.57
2023-05-21T04:46:42.006Z,71.51
2023-05-21T04:47:41.572Z,75.18
2023-05-21T04:48:41.576Z,75.85
2023-05-21T04:49:41.614Z,68.34
2023-05-21T04:50:41.756Z,74.45
2023-05-21T04:51:41.686Z,69.07
2023-05-21T04:52:41.725Z,68.86
2023-05-21T04:53:41.757Z,68.69
2023-05-21T04:54:41.791Z,69.73
2023-05-21T04:55:41.835Z,72.35
2023-05-21T04:56:41.863Z,68.37
2023-05-21T04:57:41.931Z,70.76
2023-05-21T04:58:42.055Z,72.79
2023-05-21T04:59:41.970Z,70.82
2023-05-21T05:00:42.102Z,71.51
2023-05-21T05:01:42.041Z,73.08
2023-05-21T05:02:42.100Z,72.63
2023-05-21T05:03:42.190Z,74.76
2023-05-21T05:04:42.154Z,69.40
2023-05-21T05:05:42.196Z,73.32
2023-05-21T05:06:42.244Z,70.30
2023-05-21T05:07:42.278Z,79.95
2023-05-21T05:08:42.308Z,72.07
2023-05-21T05:09:42.364Z,74.56
2023-05-21T05:10:42.405Z,71.90
2023-05-21T05:11:42.405Z,68.09
2023-05-21T05:12:42.440Z,62.86
2023-05-21T05:13:42.532Z,76.83
2023-05-21T05:14:42.569Z,77.37
2023-05-21T05:15:42.574Z,70.70
2023-05-21T05:16:42.661Z,66.13
2023-05-21T05:17:42.665Z,66.12
2023-05-21T05:18:42.675Z,71.55
2023-05-21T05:19:42.685Z,69.28
2023-05-21T05:20:42.786Z,57.98
2023-05-21T05:21:42.753Z,64.99
2023-05-21T05:22:42.793Z,60.43
2023-05-21T05:23:42.819Z,55.88
2023-05-21T05:24:42.854Z,51.04
2023-05-21T05:25:42.891Z,53.02
2023-05-21T05:26:42.914Z,57.13
2023-05-21T05:27:42.939Z,50.05
2023-05-21T05:28:42.983Z,39.65
2023-05-21T05:29:43.021Z,40.14
2023-05-21T05:30:43.087Z,39.69
2023-05-21T05:31:43.108Z,45.38
2023-05-21T05:32:43.154Z,38.94
2023-05-21T05:33:43.127Z,39.28
2023-05-21T05:34:43.128Z,39.41
2023-05-21T05:35:43.143Z,40.75
2023-05-21T05:36:43.164Z,36.16
2023-05-21T05:37:43.140Z,38.46
2023-05-21T05:38:43.142Z,37.65
2023-05-21T05:39:43.153Z,31.31
2023-05-21T05:40:43.157Z,39.51
2023-05-21T05:41:43.177Z,39.16
2023-05-21T05:42:43.162Z,31.64
2023-05-21T05:43:43.146Z,34.26
2023-05-21T05:44:43.155Z,33.47
2023-05-21T05:45:43.161Z,30.45
2023-05-21T05:46:43.476Z,29.39
2023-05-21T05:47:43.185Z,27.87
2023-05-21T05:48:43.174Z,32.62
2023-05-21T05:49:43.156Z,39.27
2023-05-21T05:50:43.177Z,39.92
2023-05-21T05:51:43.176Z,36.50
2023-05-21T05:52:43.222Z,36.74
2023-05-21T05:53:43.239Z,44.31
2023-05-21T05:54:43.290Z,32.97
2023-05-21T05:55:43.312Z,26.97
2023-05-21T05:56:43.350Z,26.24
2023-05-21T05:57:44.942Z,36.78
2023-05-21T05:58:43.418Z,27.18
2023-05-21T05:59:43.428Z,32.17
2023-05-21T06:00:43.493Z,37.08
2023-05-21T06:01:43.506Z,28.42
2023-05-21T06:02:43.597Z,34.59
2023-05-21T06:03:43.727Z,30.60
2023-05-21T06:04:43.600Z,33.42
2023-05-21T06:05:43.669Z,34.65
2023-05-21T06:06:43.669Z,38.54
2023-05-21T06:07:43.686Z,39.48
2023-05-21T06:08:43.715Z,32.42
2023-05-21T06:09:43.805Z,29.81
2023-05-21T06:10:43.784Z,31.07
2023-05-21T06:11:43.810Z,24.97
2023-05-21T06:12:43.821Z,25.06
2023-05-21T06:13:43.825Z,25.95
2023-05-21T06:14:45.153Z,27.53
2023-05-21T06:15:43.853Z,27.45
2023-05-21T06:16:43.809Z,28.43
2023-05-21T06:17:43.833Z,28.30
2023-05-21T06:18:43.832Z,27.30
2023-05-21T06:19:43.796Z,32.62
2023-05-21T06:20:43.800Z,31.49
2023-05-21T06:21:43.796Z,30.90
2023-05-21T06:22:43.773Z,30.68
2023-05-21T06:23:43.773Z,28.81
2023-05-21T06:24:43.768Z,26.56
2023-05-21T06:25:43.769Z,27.92
2023-05-21T06:26:43.752Z,27.31
2023-05-21T06:27:43.792Z,25.00
2023-05-21T06:28:43.755Z,29.22
2023-05-21T06:29:43.739Z,25.00
2023-05-21T06:30:43.753Z,27.10
2023-05-21T06:31:43.729Z,25.38
2023-05-21T06:32:43.900Z,23.95
2023-05-21T06:33:43.856Z,32.01
2023-05-21T06:34:43.841Z,32.08
2023-05-21T06:35:43.823Z,29.49
2023-05-21T06:36:43.789Z,27.34
2023-05-21T06:37:43.750Z,30.54
2023-05-21T06:38:43.752Z,26.10
2023-05-21T06:39:43.730Z,30.87
2023-05-21T06:40:43.728Z,32.50
2023-05-21T06:41:43.736Z,32.88
2023-05-21T06:42:43.726Z,37.09
2023-05-21T06:43:43.747Z,43.13
2023-05-21T06:44:43.818Z,41.37
2023-05-21T06:45:43.764Z,44.78
2023-05-21T06:46:43.703Z,48.66
2023-05-21T06:47:43.780Z,46.71
2023-05-21T06:48:43.709Z,47.51
2023-05-21T06:49:43.704Z,45.67
2023-05-21T06:50:43.713Z,46.18
2023-05-21T06:51:43.684Z,47.79
2023-05-21T06:52:43.695Z,44.45
2023-05-21T06:53:43.680Z,52.39
2023-05-21T06:54:43.691Z,54.98
2023-05-21T06:55:43.658Z,54.38
2023-05-21T06:56:43.666Z,51.67
2023-05-21T06:57:43.661Z,48.71
2023-05-21T06:58:43.660Z,45.40
2023-05-21T06:59:43.657Z,48.86
2023-05-21T07:00:43.651Z,49.37
2023-05-21T07:01:43.686Z,46.37
2023-05-21T07:02:43.728Z,48.05
2023-05-21T07:03:43.691Z,46.44
2023-05-21T07:04:43.704Z,47.09
2023-05-21T07:05:43.713Z,49.42
2023-05-21T07:06:43.711Z,50.04
2023-05-21T07:07:43.774Z,49.07
2023-05-21T07:08:43.802Z,42.77
2023-05-21T07:09:43.836Z,41.17
2023-05-21T07:10:43.878Z,40.01
2023-05-21T07:11:43.916Z,38.12
2023-05-21T07:12:43.969Z,43.23
2023-05-21T07:13:43.991Z,43.25
2023-05-21T07:14:43.993Z,46.71
2023-05-21T07:15:44.006Z,48.51
2023-05-21T07:16:44.051Z,48.83
2023-05-21T07:17:44.066Z,45.30
2023-05-21T07:18:44.071Z,41.69
2023-05-21T07:19:44.032Z,37.69
2023-05-21T07:20:44.065Z,41.21
2023-05-21T07:21:44.073Z,46.52
2023-05-21T07:22:44.071Z,43.77
2023-05-21T07:23:44.070Z,51.45
2023-05-21T07:24:44.078Z,50.91
2023-05-21T07:25:44.090Z,51.78
2023-05-21T07:26:44.072Z,45.68
2023-05-21T07:27:44.080Z,49.06
2023-05-21T07:28:44.076Z,43.70
2023-05-21T07:29:44.082Z,49.23
2023-05-21T07:30:44.099Z,47.23
2023-05-21T07:31:44.082Z,52.16
2023-05-21T07:32:44.120Z,48.03
2023-05-21T07:33:44.104Z,50.90
2023-05-21T07:34:44.125Z,50.07
2023-05-21T07:35:44.121Z,50.52
2023-05-21T07:36:44.122Z,50.84
2023-05-21T07:37:44.140Z,46.52
2023-05-21T07:38:44.136Z,45.41
2023-05-21T07:39:44.149Z,42.71
2023-05-21T07:40:44.160Z,39.94
2023-05-21T07:41:44.184Z,39.55
2023-05-21T07:42:44.179Z,39.63
2023-05-21T07:43:44.172Z,38.21
2023-05-21T07:44:44.172Z,35.74
2023-05-21T07:45:44.175Z,41.96
2023-05-21T07:46:44.234Z,42.70
2023-05-21T07:47:44.195Z,43.05
2023-05-21T07:48:44.183Z,45.71
2023-05-21T07:49:44.184Z,45.71
2023-05-21T07:50:44.186Z,48.58
2023-05-21T07:51:44.182Z,44.21
2023-05-21T07:52:44.258Z,49.12
2023-05-21T07:53:44.170Z,46.96
2023-05-21T07:54:44.196Z,50.27
2023-05-21T07:55:44.161Z,50.42
2023-05-21T07:56:44.124Z,50.85
2023-05-21T07:57:44.125Z,51.69
2023-05-21T07:58:44.119Z,51.20
2023-05-21T07:59:44.105Z,53.27
2023-05-21T08:00:44.090Z,56.11
2023-05-21T08:01:44.065Z,53.57
2023-05-21T08:02:44.115Z,55.94
2023-05-21T08:03:44.125Z,58.76
2023-05-21T08:04:44.022Z,56.80
2023-05-21T08:05:43.975Z,53.34
2023-05-21T08:06:43.963Z,53.89
2023-05-21T08:07:43.952Z,54.26
2023-05-21T08:08:43.947Z,58.26
2023-05-21T08:09:43.907Z,68.69
2023-05-21T08:10:43.880Z,67.76
2023-05-21T08:11:43.877Z,71.16
2023-05-21T08:12:43.842Z,70.47
2023-05-21T08:13:43.839Z,72.72
2023-05-21T08:14:43.815Z,70.03
2023-05-21T08:15:43.818Z,71.91
2023-05-21T08:16:43.944Z,76.97
2023-05-21T08:17:43.831Z,77.04
2023-05-21T08:18:43.812Z,77.12
2023-05-21T08:19:43.759Z,77.34
2023-05-21T08:20:43.757Z,78.67
2023-05-21T08:21:43.719Z,83.83
2023-05-21T08:22:43.769Z,88.87
2023-05-21T08:23:43.686Z,91.11
2023-05-21T08:24:43.682Z,85.79
2023-05-21T08:25:43.676Z,82.90
2023-05-21T08:26:43.663Z,81.42
2023-05-21T08:27:43.631Z,88.66
2023-05-21T08:28:43.622Z,94.66
2023-05-21T08:29:43.605Z,105.80
2023-05-21T08:30:43.605Z,104.14
2023-05-21T08:31:43.656Z,92.60
2023-05-21T08:32:43.636Z,90.95
2023-05-21T08:33:43.579Z,87.40
2023-05-21T08:34:43.546Z,89.61
2023-05-21T08:35:43.541Z,84.58
2023-05-21T08:36:43.537Z,82.48
2023-05-21T08:37:43.535Z,69.40
2023-05-21T08:38:43.520Z,59.07
2023-05-21T08:39:43.506Z,44.54
2023-05-21T08:40:43.517Z,27.29
2023-05-21T08:41:43.484Z,23.22
2023-05-21T08:42:43.498Z,25.68
2023-05-21T08:43:43.461Z,26.03
2023-05-21T08:44:43.441Z,25.00
2023-05-21T08:45:43.463Z,26.39
2023-05-21T08:46:43.446Z,32.68
2023-05-21T08:47:43.494Z,37.67
2023-05-21T08:48:43.493Z,41.74
2023-05-21T08:49:43.460Z,42.22
2023-05-21T08:50:43.452Z,45.13
2023-05-21T08:51:43.436Z,52.55
2023-05-21T08:52:43.428Z,59.86
2023-05-21T08:53:43.404Z,62.24
2023-05-21T08:54:43.439Z,42.43
2023-05-21T08:55:43.373Z,42.53
2023-05-21T08:56:43.352Z,42.55
2023-05-21T08:57:43.386Z,42.90
2023-05-21T08:58:43.327Z,46.55
2023-05-21T08:59:43.321Z,51.26
2023-05-21T09:00:43.294Z,60.67
2023-05-21T09:01:43.283Z,69.06
2023-05-21T09:02:43.313Z,71.92
2023-05-21T09:03:43.297Z,72.45
2023-05-21T09:04:43.606Z,70.29
2023-05-21T09:05:43.223Z,68.25
2023-05-21T09:06:43.206Z,72.59
2023-05-21T09:07:43.185Z,80.03
2023-05-21T09:08:43.177Z,80.00
2023-05-21T09:09:43.148Z,91.27
2023-05-21T09:10:43.138Z,98.48
2023-05-21T09:11:43.106Z,99.73
2023-05-21T09:12:43.090Z,98.55
2023-05-21T09:13:43.077Z,105.32
2023-05-21T09:14:43.060Z,106.09
2023-05-21T09:15:43.043Z,102.99
2023-05-21T09:16:43.029Z,103.29
2023-05-21T09:17:43.083Z,102.24
2023-05-21T09:18:42.984Z,105.51
2023-05-21T09:19:43.008Z,106.53
2023-05-21T09:20:42.912Z,89.91
2023-05-21T09:21:42.901Z,80.35
2023-05-21T09:22:42.887Z,69.73
2023-05-21T09:23:42.854Z,68.93
2023-05-21T09:24:42.826Z,61.22
2023-05-21T09:25:42.842Z,56.60
2023-05-21T09:26:42.860Z,57.99
2023-05-21T09:27:42.793Z,62.15
2023-05-21T09:28:42.773Z,67.75
2023-05-21T09:29:42.761Z,70.97
2023-05-21T09:30:42.764Z,76.05
2023-05-21T09:31:42.761Z,79.44
2023-05-21T09:32:42.806Z,75.24
2023-05-21T09:33:42.768Z,71.64
2023-05-21T09:34:42.815Z,62.74
2023-05-21T09:35:42.837Z,56.85
2023-05-21T09:36:42.861Z,58.11
2023-05-21T09:37:42.880Z,60.81
2023-05-21T09:38:42.904Z,53.18
2023-05-21T09:39:42.987Z,43.29
2023-05-21T09:40:42.986Z,54.97
2023-05-21T09:41:43.013Z,56.14
2023-05-21T09:42:43.058Z,56.72
2023-05-21T09:43:43.099Z,65.51
2023-05-21T09:44:43.123Z,53.02
2023-05-21T09:45:43.168Z,52.96
2023-05-21T09:46:43.344Z,52.87
2023-05-21T09:47:43.226Z,50.90
2023-05-21T09:48:43.241Z,55.31
2023-05-21T09:49:43.239Z,51.79
2023-05-21T09:50:43.271Z,60.78
2023-05-21T09:51:43.313Z,64.57
2023-05-21T09:52:43.354Z,68.04
2023-05-21T09:53:43.424Z,73.38
2023-05-21T09:54:43.454Z,70.17
2023-05-21T09:55:43.492Z,80.94
2023-05-21T09:56:43.528Z,77.67
2023-05-21T09:57:43.564Z,72.89
2023-05-21T09:58:43.593Z,69.75
2023-05-21T09:59:43.629Z,74.60
2023-05-21T10:00:43.672Z,77.70
2023-05-21T10:01:43.729Z,79.42
2023-05-21T10:02:43.889Z,87.63
2023-05-21T10:03:43.845Z,86.76
2023-05-21T10:04:43.953Z,89.44
2023-05-21T10:05:43.884Z,92.45
2023-05-21T10:06:43.939Z,96.52
2023-05-21T10:07:43.990Z,103.31
2023-05-21T10:08:44.025Z,111.29
2023-05-21T10:09:44.063Z,114.77
2023-05-21T10:10:44.137Z,125.68
2023-05-21T10:11:44.156Z,124.58
2023-05-21T10:12:44.197Z,115.25
2023-05-21T10:13:44.199Z,115.32
2023-05-21T10:14:44.158Z,115.91
2023-05-21T10:15:44.259Z,118.09
2023-05-21T10:16:44.461Z,122.42
2023-05-21T10:17:44.172Z,128.60
2023-05-21T10:18:44.100Z,121.95
2023-05-21T10:19:44.049Z,123.10
2023-05-21T10:20:44.038Z,125.17
2023-05-21T10:21:44.034Z,119.91
2023-05-21T10:22:44.075Z,119.96
2023-05-21T10:23:44.117Z,111.98
2023-05-21T10:24:44.160Z,101.16
2023-05-21T10:25:44.205Z,96.65
2023-05-21T10:26:44.248Z,88.20
2023-05-21T10:27:44.277Z,89.17
2023-05-21T10:28:44.337Z,95.34
2023-05-21T10:29:44.380Z,90.53
2023-05-21T10:30:44.414Z,68.35
2023-05-21T10:31:44.476Z,74.73
2023-05-21T10:32:44.644Z,76.92
2023-05-21T10:33:44.535Z,63.19
2023-05-21T10:34:44.585Z,58.23
2023-05-21T10:35:44.606Z,66.35
2023-05-21T10:36:44.644Z,76.11
2023-05-21T10:37:44.681Z,73.46
2023-05-21T10:38:44.718Z,84.89
2023-05-21T10:39:44.762Z,78.73
2023-05-21T10:40:44.814Z,83.27
2023-05-21T10:41:44.831Z,81.71
2023-05-21T10:42:44.872Z,53.21
2023-05-21T10:43:44.912Z,41.65
2023-05-21T10:44:44.954Z,41.72
2023-05-21T10:45:45.033Z,51.50
2023-05-21T10:46:45.032Z,25.67
2023-05-21T10:47:45.104Z,31.88
2023-05-21T10:48:45.107Z,38.81
2023-05-21T10:49:45.147Z,43.69
2023-05-21T10:50:45.182Z,48.48
2023-05-21T10:51:45.217Z,25.25
2023-05-21T10:52:45.268Z,35.90
2023-05-21T10:53:45.289Z,35.33
2023-05-21T10:54:45.329Z,32.88
2023-05-21T10:55:45.390Z,41.84
2023-05-21T10:56:45.437Z,41.91
2023-05-21T10:57:45.462Z,39.33
2023-05-21T10:58:45.491Z,47.44
2023-05-21T10:59:45.527Z,48.24
2023-05-21T11:00:45.573Z,46.56
2023-05-21T11:01:45.654Z,48.10
2023-05-21T11:02:45.819Z,46.54
2023-05-21T11:03:45.736Z,48.48
2023-05-21T11:04:45.718Z,48.70
2023-05-21T11:05:45.763Z,49.43
2023-05-21T11:06:45.796Z,55.68
2023-05-21T11:07:45.851Z,57.83
2023-05-21T11:08:45.876Z,60.97
2023-05-21T11:09:45.920Z,64.55
2023-05-21T11:10:45.963Z,64.63
2023-05-21T11:11:46.012Z,63.16
2023-05-21T11:12:46.043Z,63.45
2023-05-21T11:13:46.064Z,59.39
2023-05-21T11:14:46.142Z,56.11
2023-05-21T11:15:46.147Z,55.50
2023-05-21T11:16:46.198Z,55.99
2023-05-21T11:17:46.134Z,57.74
2023-05-21T11:18:46.170Z,61.11
2023-05-21T11:19:46.047Z,64.27
2023-05-21T11:20:46.019Z,70.21
2023-05-21T11:21:46.005Z,74.87
2023-05-21T11:22:45.987Z,52.59
2023-05-21T11:23:45.956Z,60.94
2023-05-21T11:24:45.924Z,76.98
2023-05-21T11:25:45.954Z,84.31
2023-05-21T11:26:45.978Z,85.65
2023-05-21T11:27:46.015Z,99.70
2023-05-21T11:28:46.102Z,105.47
2023-05-21T11:29:46.130Z,108.31
2023-05-21T11:30:46.133Z,106.58
2023-05-21T11:31:46.257Z,112.11
2023-05-21T11:32:46.245Z,108.85
2023-05-21T11:33:46.248Z,107.43
2023-05-21T11:34:46.287Z,98.42
2023-05-21T11:35:46.348Z,101.56
2023-05-21T11:36:46.369Z,105.70
2023-05-21T11:37:46.418Z,117.13
2023-05-21T11:38:46.454Z,121.48
2023-05-21T11:39:46.490Z,123.18
2023-05-21T11:40:46.533Z,126.61
2023-05-21T11:41:46.582Z,121.48
2023-05-21T11:42:46.608Z,128.61
2023-05-21T11:43:46.645Z,127.78
2023-05-21T11:44:46.680Z,133.16
2023-05-21T11:45:46.740Z,136.38
2023-05-21T11:46:46.793Z,136.99
2023-05-21T11:47:46.863Z,140.20
2023-05-21T11:48:46.832Z,135.22
2023-05-21T11:49:46.886Z,140.64
2023-05-21T11:50:46.931Z,144.61
2023-05-21T11:51:46.963Z,146.36
2023-05-21T11:52:46.991Z,140.65
2023-05-21T11:53:47.015Z,146.30
2023-05-21T11:54:47.148Z,145.31
2023-05-21T11:55:47.116Z,145.56
2023-05-21T11:56:47.137Z,138.19
2023-05-21T11:57:47.159Z,131.18
2023-05-21T11:58:47.177Z,105.04
2023-05-21T11:59:47.153Z,105.42
2023-05-21T12:00:47.144Z,107.32
2023-05-21T12:01:47.131Z,112.85
2023-05-21T12:02:47.171Z,122.22
2023-05-21T12:03:47.205Z,136.41
2023-05-21T12:04:47.052Z,140.06
2023-05-21T12:05:47.136Z,138.47
2023-05-21T12:06:47.007Z,134.58
2023-05-21T12:07:46.978Z,132.20
2023-05-21T12:08:46.998Z,136.81
2023-05-21T12:09:47.052Z,137.15
2023-05-21T12:10:47.077Z,140.83
2023-05-21T12:11:47.111Z,140.54
2023-05-21T12:12:55.529Z,140.00
2023-05-21T12:13:48.283Z,140.11
2023-05-21T12:14:47.110Z,140.87
2023-05-21T12:15:47.101Z,140.09
2023-05-21T12:16:47.146Z,138.45
2023-05-21T12:17:47.086Z,139.48
2023-05-21T12:18:47.060Z,141.59
2023-05-21T12:19:47.018Z,138.21
2023-05-21T12:20:47.006Z,116.47
2023-05-21T12:21:46.999Z,115.87
2023-05-21T12:22:46.969Z,122.84
2023-05-21T12:23:46.937Z,127.01
2023-05-21T12:24:46.924Z,104.30
2023-05-21T12:25:46.968Z,96.85
2023-05-21T12:26:47.060Z,106.74
2023-05-21T12:27:46.997Z,112.14
2023-05-21T12:28:47.036Z,118.08
2023-05-21T12:29:47.063Z,122.61
2023-05-21T12:30:47.104Z,127.04
2023-05-21T12:31:47.136Z,124.04
2023-05-21T12:32:47.211Z,121.54
2023-05-21T12:33:47.183Z,120.18
2023-05-21T12:34:47.158Z,120.33
2023-05-21T12:35:47.234Z,115.00
2023-05-21T12:36:47.138Z,87.88
2023-05-21T12:37:47.126Z,81.03
2023-05-21T12:38:47.076Z,71.58
2023-05-21T12:39:47.088Z,83.63
2023-05-21T12:40:47.055Z,60.64
2023-05-21T12:41:47.023Z,28.73
2023-05-21T12:42:47.009Z,50.57
2023-05-21T12:43:46.999Z,62.67
2023-05-21T12:44:47.006Z,63.13
2023-05-21T12:45:46.944Z,52.16
2023-05-21T12:46:46.914Z,42.04
2023-05-21T12:47:46.923Z,12.13
2023-05-21T12:48:46.867Z,27.61
2023-05-21T12:49:46.864Z,36.92